sensor_id;sensor_type;location;lat;lon;timestamp;temperature;humidity
9919;DHT22;4998;51.024;13.828;2023-08-20T00:00:13;27.90;68.20
9919;DHT22;4998;51.024;13.828;2023-08-20T00:02:42;27.90;68.20
9919;DHT22;4998;51.024;13.828;2023-08-20T00:05:10;27.90;68.40
9919;DHT22;4998;51.024;13.828;2023-08-20T00:07:39;27.90;68.50
9919;DHT22;4998;51.024;13.828;2023-08-20T00:10:07;27.90;68.80
9919;DHT22;4998;51.024;13.828;2023-08-20T00:12:35;27.90;69.00
9919;DHT22;4998;51.024;13.828;2023-08-20T00:15:04;27.80;68.90
9919;DHT22;4998;51.024;13.828;2023-08-20T00:17:32;27.80;69.10
9919;DHT22;4998;51.024;13.828;2023-08-20T00:19:59;27.80;69.20
9919;DHT22;4998;51.024;13.828;2023-08-20T00:22:27;27.80;69.40
9919;DHT22;4998;51.024;13.828;2023-08-20T00:24:56;27.80;69.50
9919;DHT22;4998;51.024;13.828;2023-08-20T00:27:23;27.80;69.60
9919;DHT22;4998;51.024;13.828;2023-08-20T00:29:50;27.80;69.60
9919;DHT22;4998;51.024;13.828;2023-08-20T00:32:18;27.80;69.80
9919;DHT22;4998;51.024;13.828;2023-08-20T00:34:45;27.80;69.90
9919;DHT22;4998;51.024;13.828;2023-08-20T00:37:12;27.80;70.20
9919;DHT22;4998;51.024;13.828;2023-08-20T00:39:39;27.80;70.20
9919;DHT22;4998;51.024;13.828;2023-08-20T00:42:07;27.80;70.40
9919;DHT22;4998;51.024;13.828;2023-08-20T00:44:34;27.80;70.40
9919;DHT22;4998;51.024;13.828;2023-08-20T00:47:02;27.80;70.30
9919;DHT22;4998;51.024;13.828;2023-08-20T00:49:32;27.80;70.40
9919;DHT22;4998;51.024;13.828;2023-08-20T00:51:59;27.80;70.40
9919;DHT22;4998;51.024;13.828;2023-08-20T00:54:27;27.80;70.30
9919;DHT22;4998;51.024;13.828;2023-08-20T00:56:55;27.80;70.30
9919;DHT22;4998;51.024;13.828;2023-08-20T00:59:23;27.80;70.30
9919;DHT22;4998;51.024;13.828;2023-08-20T01:01:51;27.80;70.40
9919;DHT22;4998;51.024;13.828;2023-08-20T01:04:18;27.80;70.50
9919;DHT22;4998;51.024;13.828;2023-08-20T01:06:51;27.70;70.50
9919;DHT22;4998;51.024;13.828;2023-08-20T01:09:26;27.80;70.70
9919;DHT22;4998;51.024;13.828;2023-08-20T01:11:59;27.80;70.70
9919;DHT22;4998;51.024;13.828;2023-08-20T01:14:27;27.80;70.80
9919;DHT22;4998;51.024;13.828;2023-08-20T01:16:54;27.70;70.80
9919;DHT22;4998;51.024;13.828;2023-08-20T01:19:22;27.70;70.90
9919;DHT22;4998;51.024;13.828;2023-08-20T01:22:01;27.70;71.00
9919;DHT22;4998;51.024;13.828;2023-08-20T01:24:44;27.70;71.20
9919;DHT22;4998;51.024;13.828;2023-08-20T01:27:31;27.70;71.30
9919;DHT22;4998;51.024;13.828;2023-08-20T01:30:05;27.70;71.30
9919;DHT22;4998;51.024;13.828;2023-08-20T01:32:33;27.70;71.50
9919;DHT22;4998;51.024;13.828;2023-08-20T01:35:00;27.60;71.40
9919;DHT22;4998;51.024;13.828;2023-08-20T01:37:28;27.60;71.50
9919;DHT22;4998;51.024;13.828;2023-08-20T01:39:55;27.60;71.60
9919;DHT22;4998;51.024;13.828;2023-08-20T01:42:22;27.70;71.90
9919;DHT22;4998;51.024;13.828;2023-08-20T01:44:49;27.60;71.90
9919;DHT22;4998;51.024;13.828;2023-08-20T01:47:17;27.60;72.00
9919;DHT22;4998;51.024;13.828;2023-08-20T01:49:44;27.60;72.00
9919;DHT22;4998;51.024;13.828;2023-08-20T01:52:11;27.60;72.00
9919;DHT22;4998;51.024;13.828;2023-08-20T01:54:38;27.60;72.10
9919;DHT22;4998;51.024;13.828;2023-08-20T01:57:05;27.50;72.10
9919;DHT22;4998;51.024;13.828;2023-08-20T01:59:32;27.50;72.40
9919;DHT22;4998;51.024;13.828;2023-08-20T02:01:59;27.40;72.30
9919;DHT22;4998;51.024;13.828;2023-08-20T02:04:27;27.40;72.60
9919;DHT22;4998;51.024;13.828;2023-08-20T02:06:54;27.40;73.10
9919;DHT22;4998;51.024;13.828;2023-08-20T02:09:21;27.30;73.10
9919;DHT22;4998;51.024;13.828;2023-08-20T02:11:48;27.30;73.70
9919;DHT22;4998;51.024;13.828;2023-08-20T02:14:15;27.30;73.50
9919;DHT22;4998;51.024;13.828;2023-08-20T02:16:42;27.30;73.70
9919;DHT22;4998;51.024;13.828;2023-08-20T02:19:09;27.30;73.80
9919;DHT22;4998;51.024;13.828;2023-08-20T02:21:38;27.30;73.90
9919;DHT22;4998;51.024;13.828;2023-08-20T02:24:06;27.30;74.20
9919;DHT22;4998;51.024;13.828;2023-08-20T02:26:33;27.30;74.20
9919;DHT22;4998;51.024;13.828;2023-08-20T02:28:59;27.30;74.20
9919;DHT22;4998;51.024;13.828;2023-08-20T02:31:26;27.30;74.30
9919;DHT22;4998;51.024;13.828;2023-08-20T02:33:53;27.30;74.30
9919;DHT22;4998;51.024;13.828;2023-08-20T02:36:20;27.30;74.40
9919;DHT22;4998;51.024;13.828;2023-08-20T02:38:49;27.40;74.40
9919;DHT22;4998;51.024;13.828;2023-08-20T02:41:16;27.30;74.70
9919;DHT22;4998;51.024;13.828;2023-08-20T02:43:43;27.30;74.60
9919;DHT22;4998;51.024;13.828;2023-08-20T02:46:10;27.30;74.70
9919;DHT22;4998;51.024;13.828;2023-08-20T02:48:37;27.30;74.80
9919;DHT22;4998;51.024;13.828;2023-08-20T02:51:04;27.20;74.90
9919;DHT22;4998;51.024;13.828;2023-08-20T02:53:31;27.20;75.10
9919;DHT22;4998;51.024;13.828;2023-08-20T02:55:59;27.20;75.40
9919;DHT22;4998;51.024;13.828;2023-08-20T02:58:26;27.20;75.60
9919;DHT22;4998;51.024;13.828;2023-08-20T03:00:53;27.20;75.60
9919;DHT22;4998;51.024;13.828;2023-08-20T03:03:20;27.20;75.70
9919;DHT22;4998;51.024;13.828;2023-08-20T03:05:47;27.20;75.80
9919;DHT22;4998;51.024;13.828;2023-08-20T03:08:14;27.20;76.00
9919;DHT22;4998;51.024;13.828;2023-08-20T03:10:41;27.20;76.10
9919;DHT22;4998;51.024;13.828;2023-08-20T03:13:09;27.20;76.20
9919;DHT22;4998;51.024;13.828;2023-08-20T03:15:36;27.20;76.50
9919;DHT22;4998;51.024;13.828;2023-08-20T03:18:04;27.20;76.40
9919;DHT22;4998;51.024;13.828;2023-08-20T03:20:31;27.20;76.50
9919;DHT22;4998;51.024;13.828;2023-08-20T03:22:58;27.20;76.60
9919;DHT22;4998;51.024;13.828;2023-08-20T03:25:25;27.20;76.50
9919;DHT22;4998;51.024;13.828;2023-08-20T03:27:52;27.20;77.50
9919;DHT22;4998;51.024;13.828;2023-08-20T03:30:21;27.20;76.80
9919;DHT22;4998;51.024;13.828;2023-08-20T03:32:47;27.20;77.10
9919;DHT22;4998;51.024;13.828;2023-08-20T03:35:14;27.20;77.30
9919;DHT22;4998;51.024;13.828;2023-08-20T03:37:42;27.20;77.40
9919;DHT22;4998;51.024;13.828;2023-08-20T03:40:09;27.20;77.40
9919;DHT22;4998;51.024;13.828;2023-08-20T03:42:36;27.20;77.70
9919;DHT22;4998;51.024;13.828;2023-08-20T03:45:04;27.10;78.50
9919;DHT22;4998;51.024;13.828;2023-08-20T03:47:32;27.10;78.00
9919;DHT22;4998;51.024;13.828;2023-08-20T03:49:59;27.10;78.90
9919;DHT22;4998;51.024;13.828;2023-08-20T03:52:26;27.10;78.40
9919;DHT22;4998;51.024;13.828;2023-08-20T03:54:53;27.20;78.50
9919;DHT22;4998;51.024;13.828;2023-08-20T03:57:20;27.20;78.60
9919;DHT22;4998;51.024;13.828;2023-08-20T03:59:47;27.20;78.70
9919;DHT22;4998;51.024;13.828;2023-08-20T04:02:14;27.20;78.80
9919;DHT22;4998;51.024;13.828;2023-08-20T04:04:43;27.20;78.80
9919;DHT22;4998;51.024;13.828;2023-08-20T04:07:10;27.20;78.80
9919;DHT22;4998;51.024;13.828;2023-08-20T04:09:37;27.20;78.90
9919;DHT22;4998;51.024;13.828;2023-08-20T04:12:06;27.20;78.90
9919;DHT22;4998;51.024;13.828;2023-08-20T04:14:33;27.30;78.90
9919;DHT22;4998;51.024;13.828;2023-08-20T04:17:00;27.20;78.80
9919;DHT22;4998;51.024;13.828;2023-08-20T04:19:27;27.30;78.80
9919;DHT22;4998;51.024;13.828;2023-08-20T04:21:55;27.20;78.80
9919;DHT22;4998;51.024;13.828;2023-08-20T04:24:22;27.30;79.10
9919;DHT22;4998;51.024;13.828;2023-08-20T04:26:49;27.30;79.00
9919;DHT22;4998;51.024;13.828;2023-08-20T04:29:15;27.30;79.20
9919;DHT22;4998;51.024;13.828;2023-08-20T04:31:42;27.30;79.30
9919;DHT22;4998;51.024;13.828;2023-08-20T04:34:09;27.30;79.30
9919;DHT22;4998;51.024;13.828;2023-08-20T04:36:36;27.30;79.40
9919;DHT22;4998;51.024;13.828;2023-08-20T04:39:04;27.30;79.50
9919;DHT22;4998;51.024;13.828;2023-08-20T04:41:32;27.30;79.80
9919;DHT22;4998;51.024;13.828;2023-08-20T04:43:59;27.30;79.80
9919;DHT22;4998;51.024;13.828;2023-08-20T04:46:25;27.30;79.70
9919;DHT22;4998;51.024;13.828;2023-08-20T04:48:54;27.30;79.70
9919;DHT22;4998;51.024;13.828;2023-08-20T04:51:21;27.20;79.90
9919;DHT22;4998;51.024;13.828;2023-08-20T04:53:47;27.20;80.00
9919;DHT22;4998;51.024;13.828;2023-08-20T04:56:16;27.20;80.10
9919;DHT22;4998;51.024;13.828;2023-08-20T04:58:43;27.20;80.30
9919;DHT22;4998;51.024;13.828;2023-08-20T05:01:09;27.20;80.40
9919;DHT22;4998;51.024;13.828;2023-08-20T05:03:36;27.20;80.60
9919;DHT22;4998;51.024;13.828;2023-08-20T05:06:03;27.20;80.80
9919;DHT22;4998;51.024;13.828;2023-08-20T05:08:30;27.20;80.90
9919;DHT22;4998;51.024;13.828;2023-08-20T05:10:57;27.20;81.10
9919;DHT22;4998;51.024;13.828;2023-08-20T05:13:25;27.20;81.10
9919;DHT22;4998;51.024;13.828;2023-08-20T05:15:52;27.30;81.50
9919;DHT22;4998;51.024;13.828;2023-08-20T05:18:19;27.20;81.80
9919;DHT22;4998;51.024;13.828;2023-08-20T05:20:46;27.20;81.90
9919;DHT22;4998;51.024;13.828;2023-08-20T05:23:13;27.20;82.00
9919;DHT22;4998;51.024;13.828;2023-08-20T05:25:40;27.30;82.30
9919;DHT22;4998;51.024;13.828;2023-08-20T05:28:07;27.30;82.60
9919;DHT22;4998;51.024;13.828;2023-08-20T05:30:35;27.30;82.70
9919;DHT22;4998;51.024;13.828;2023-08-20T05:33:02;27.40;83.10
9919;DHT22;4998;51.024;13.828;2023-08-20T05:35:29;27.40;83.00
9919;DHT22;4998;51.024;13.828;2023-08-20T05:37:56;27.40;82.90
9919;DHT22;4998;51.024;13.828;2023-08-20T05:40:23;27.50;83.10
9919;DHT22;4998;51.024;13.828;2023-08-20T05:42:50;27.50;83.00
9919;DHT22;4998;51.024;13.828;2023-08-20T05:45:17;27.60;83.10
9919;DHT22;4998;51.024;13.828;2023-08-20T05:47:45;27.60;83.10
9919;DHT22;4998;51.024;13.828;2023-08-20T05:50:12;27.60;83.10
9919;DHT22;4998;51.024;13.828;2023-08-20T05:52:39;27.70;83.00
9919;DHT22;4998;51.024;13.828;2023-08-20T05:55:06;27.70;83.30
9919;DHT22;4998;51.024;13.828;2023-08-20T05:57:34;27.80;83.30
9919;DHT22;4998;51.024;13.828;2023-08-20T06:00:02;27.80;83.20
9919;DHT22;4998;51.024;13.828;2023-08-20T06:02:30;27.90;83.30
9919;DHT22;4998;51.024;13.828;2023-08-20T06:04:58;27.90;83.30
9919;DHT22;4998;51.024;13.828;2023-08-20T06:07:25;28.00;83.60
9919;DHT22;4998;51.024;13.828;2023-08-20T06:09:52;28.10;83.60
9919;DHT22;4998;51.024;13.828;2023-08-20T06:12:19;28.10;83.70
9919;DHT22;4998;51.024;13.828;2023-08-20T06:14:46;28.20;83.70
9919;DHT22;4998;51.024;13.828;2023-08-20T06:17:13;28.20;83.60
9919;DHT22;4998;51.024;13.828;2023-08-20T06:19:40;28.30;83.70
9919;DHT22;4998;51.024;13.828;2023-08-20T06:22:08;28.30;83.70
9919;DHT22;4998;51.024;13.828;2023-08-20T06:24:35;28.30;83.80
9919;DHT22;4998;51.024;13.828;2023-08-20T06:27:03;28.30;83.80
9919;DHT22;4998;51.024;13.828;2023-08-20T06:29:30;28.30;84.00
9919;DHT22;4998;51.024;13.828;2023-08-20T06:31:57;28.30;83.90
9919;DHT22;4998;51.024;13.828;2023-08-20T06:34:24;28.30;83.80
9919;DHT22;4998;51.024;13.828;2023-08-20T06:36:51;28.40;83.70
9919;DHT22;4998;51.024;13.828;2023-08-20T06:39:19;28.40;83.70
9919;DHT22;4998;51.024;13.828;2023-08-20T06:41:46;28.40;84.00
9919;DHT22;4998;51.024;13.828;2023-08-20T06:44:13;28.30;84.80
9919;DHT22;4998;51.024;13.828;2023-08-20T06:46:40;28.40;84.20
9919;DHT22;4998;51.024;13.828;2023-08-20T06:49:07;28.40;84.10
9919;DHT22;4998;51.024;13.828;2023-08-20T06:51:34;28.40;83.90
9919;DHT22;4998;51.024;13.828;2023-08-20T06:54:02;28.40;84.00
9919;DHT22;4998;51.024;13.828;2023-08-20T06:56:33;28.40;84.00
9919;DHT22;4998;51.024;13.828;2023-08-20T06:59:00;28.40;84.20
9919;DHT22;4998;51.024;13.828;2023-08-20T07:01:27;28.40;84.30
9919;DHT22;4998;51.024;13.828;2023-08-20T07:03:54;28.40;84.30
9919;DHT22;4998;51.024;13.828;2023-08-20T07:06:21;28.40;84.30
9919;DHT22;4998;51.024;13.828;2023-08-20T07:08:47;28.40;84.30
9919;DHT22;4998;51.024;13.828;2023-08-20T07:11:16;28.40;84.20
9919;DHT22;4998;51.024;13.828;2023-08-20T07:13:44;28.40;84.40
9919;DHT22;4998;51.024;13.828;2023-08-20T07:16:11;28.40;84.60
9919;DHT22;4998;51.024;13.828;2023-08-20T07:18:38;28.40;84.70
9919;DHT22;4998;51.024;13.828;2023-08-20T07:21:05;28.50;84.80
9919;DHT22;4998;51.024;13.828;2023-08-20T07:23:33;28.50;84.90
9919;DHT22;4998;51.024;13.828;2023-08-20T07:26:07;28.50;84.90
9919;DHT22;4998;51.024;13.828;2023-08-20T07:28:34;28.50;84.90
9919;DHT22;4998;51.024;13.828;2023-08-20T07:31:21;28.60;85.70
9919;DHT22;4998;51.024;13.828;2023-08-20T07:33:48;28.60;84.80
9919;DHT22;4998;51.024;13.828;2023-08-20T07:36:16;28.60;85.10
9919;DHT22;4998;51.024;13.828;2023-08-20T07:38:43;28.70;85.20
9919;DHT22;4998;51.024;13.828;2023-08-20T07:41:10;28.70;85.30
9919;DHT22;4998;51.024;13.828;2023-08-20T07:43:38;28.70;85.20
9919;DHT22;4998;51.024;13.828;2023-08-20T07:46:06;28.80;85.40
9919;DHT22;4998;51.024;13.828;2023-08-20T07:48:35;28.90;85.40
9919;DHT22;4998;51.024;13.828;2023-08-20T07:51:02;29.00;85.50
9919;DHT22;4998;51.024;13.828;2023-08-20T07:53:29;29.00;85.50
9919;DHT22;4998;51.024;13.828;2023-08-20T07:55:56;29.10;85.50
9919;DHT22;4998;51.024;13.828;2023-08-20T07:58:23;29.20;85.20
9919;DHT22;4998;51.024;13.828;2023-08-20T08:00:50;29.30;85.00
9919;DHT22;4998;51.024;13.828;2023-08-20T08:03:17;29.40;84.90
9919;DHT22;4998;51.024;13.828;2023-08-20T08:05:47;29.50;84.40
9919;DHT22;4998;51.024;13.828;2023-08-20T08:08:15;29.60;84.10
9919;DHT22;4998;51.024;13.828;2023-08-20T08:10:42;29.70;83.40
9919;DHT22;4998;51.024;13.828;2023-08-20T08:13:10;29.70;83.00
9919;DHT22;4998;51.024;13.828;2023-08-20T08:15:37;29.70;82.50
9919;DHT22;4998;51.024;13.828;2023-08-20T08:18:05;29.80;82.30
9919;DHT22;4998;51.024;13.828;2023-08-20T08:20:32;29.90;82.90
9919;DHT22;4998;51.024;13.828;2023-08-20T08:23:01;29.90;82.50
9919;DHT22;4998;51.024;13.828;2023-08-20T08:25:28;29.90;82.00
9919;DHT22;4998;51.024;13.828;2023-08-20T08:27:55;30.00;81.90
9919;DHT22;4998;51.024;13.828;2023-08-20T08:30:23;30.00;81.50
9919;DHT22;4998;51.024;13.828;2023-08-20T08:32:50;30.10;81.10
9919;DHT22;4998;51.024;13.828;2023-08-20T08:35:17;30.00;81.00
9919;DHT22;4998;51.024;13.828;2023-08-20T08:37:44;30.00;80.90
9919;DHT22;4998;51.024;13.828;2023-08-20T08:40:13;30.10;80.80
9919;DHT22;4998;51.024;13.828;2023-08-20T08:42:40;30.10;80.80
9919;DHT22;4998;51.024;13.828;2023-08-20T08:45:09;30.10;80.80
9919;DHT22;4998;51.024;13.828;2023-08-20T08:47:36;30.10;80.80
9919;DHT22;4998;51.024;13.828;2023-08-20T08:50:05;30.10;80.80
9919;DHT22;4998;51.024;13.828;2023-08-20T08:52:34;30.10;80.90
9919;DHT22;4998;51.024;13.828;2023-08-20T08:55:03;30.10;80.90
9919;DHT22;4998;51.024;13.828;2023-08-20T08:57:34;30.20;81.00
9919;DHT22;4998;51.024;13.828;2023-08-20T09:00:01;30.20;80.80
9919;DHT22;4998;51.024;13.828;2023-08-20T09:02:29;30.30;80.90
9919;DHT22;4998;51.024;13.828;2023-08-20T09:04:56;30.30;80.90
9919;DHT22;4998;51.024;13.828;2023-08-20T09:07:23;30.40;80.70
9919;DHT22;4998;51.024;13.828;2023-08-20T09:09:50;30.40;80.30
9919;DHT22;4998;51.024;13.828;2023-08-20T09:12:19;30.40;80.10
9919;DHT22;4998;51.024;13.828;2023-08-20T09:14:49;30.50;79.90
9919;DHT22;4998;51.024;13.828;2023-08-20T09:17:16;30.50;79.80
9919;DHT22;4998;51.024;13.828;2023-08-20T09:19:45;30.50;79.50
9919;DHT22;4998;51.024;13.828;2023-08-20T09:22:13;30.50;79.30
9919;DHT22;4998;51.024;13.828;2023-08-20T09:24:41;30.50;79.40
9919;DHT22;4998;51.024;13.828;2023-08-20T09:27:09;30.60;79.60
9919;DHT22;4998;51.024;13.828;2023-08-20T09:29:44;30.60;79.60
9919;DHT22;4998;51.024;13.828;2023-08-20T09:32:15;30.60;79.70
9919;DHT22;4998;51.024;13.828;2023-08-20T09:34:43;30.70;80.20
9919;DHT22;4998;51.024;13.828;2023-08-20T09:37:10;30.70;80.40
9919;DHT22;4998;51.024;13.828;2023-08-20T09:39:37;30.70;80.20
9919;DHT22;4998;51.024;13.828;2023-08-20T09:42:05;30.70;80.10
9919;DHT22;4998;51.024;13.828;2023-08-20T09:44:33;30.60;80.00
9919;DHT22;4998;51.024;13.828;2023-08-20T09:47:03;30.60;80.20
9919;DHT22;4998;51.024;13.828;2023-08-20T09:49:36;30.50;80.90
9919;DHT22;4998;51.024;13.828;2023-08-20T09:52:05;30.60;81.10
9919;DHT22;4998;51.024;13.828;2023-08-20T09:54:49;30.60;81.10
9919;DHT22;4998;51.024;13.828;2023-08-20T09:57:26;30.60;81.10
9919;DHT22;4998;51.024;13.828;2023-08-20T09:59:54;30.60;81.10
9919;DHT22;4998;51.024;13.828;2023-08-20T10:02:22;30.60;81.30
9919;DHT22;4998;51.024;13.828;2023-08-20T10:04:52;30.60;81.40
9919;DHT22;4998;51.024;13.828;2023-08-20T10:07:19;30.60;81.00
9919;DHT22;4998;51.024;13.828;2023-08-20T10:09:48;30.60;81.40
9919;DHT22;4998;51.024;13.828;2023-08-20T10:12:16;30.70;81.50
9919;DHT22;4998;51.024;13.828;2023-08-20T10:21:10;30.80;80.70
9919;DHT22;4998;51.024;13.828;2023-08-20T10:23:40;30.80;80.40
9919;DHT22;4998;51.024;13.828;2023-08-20T10:29:37;30.80;80.40
9919;DHT22;4998;51.024;13.828;2023-08-20T10:32:06;30.80;80.10
9919;DHT22;4998;51.024;13.828;2023-08-20T10:34:36;30.80;80.40
9919;DHT22;4998;51.024;13.828;2023-08-20T10:37:10;30.90;80.70
9919;DHT22;4998;51.024;13.828;2023-08-20T10:39:38;30.90;80.40
9919;DHT22;4998;51.024;13.828;2023-08-20T10:42:26;30.90;80.00
9919;DHT22;4998;51.024;13.828;2023-08-20T10:45:00;31.00;80.30
9919;DHT22;4998;51.024;13.828;2023-08-20T10:47:36;31.00;80.20
9919;DHT22;4998;51.024;13.828;2023-08-20T10:50:03;31.10;80.30
9919;DHT22;4998;51.024;13.828;2023-08-20T10:52:32;31.10;80.10
9919;DHT22;4998;51.024;13.828;2023-08-20T10:54:59;31.20;79.70
9919;DHT22;4998;51.024;13.828;2023-08-20T10:57:33;31.20;79.50
9919;DHT22;4998;51.024;13.828;2023-08-20T11:00:03;31.30;78.90
9919;DHT22;4998;51.024;13.828;2023-08-20T11:02:37;31.30;78.60
9919;DHT22;4998;51.024;13.828;2023-08-20T11:05:16;31.30;77.60
9919;DHT22;4998;51.024;13.828;2023-08-20T11:07:45;31.40;76.90
9919;DHT22;4998;51.024;13.828;2023-08-20T11:10:13;31.40;76.20
9919;DHT22;4998;51.024;13.828;2023-08-20T11:12:41;31.40;76.30
9919;DHT22;4998;51.024;13.828;2023-08-20T11:15:09;31.40;75.90
9919;DHT22;4998;51.024;13.828;2023-08-20T11:17:41;31.40;75.60
9919;DHT22;4998;51.024;13.828;2023-08-20T11:20:09;31.50;75.70
9919;DHT22;4998;51.024;13.828;2023-08-20T11:22:38;31.50;75.80
9919;DHT22;4998;51.024;13.828;2023-08-20T11:25:10;31.50;75.70
9919;DHT22;4998;51.024;13.828;2023-08-20T11:27:40;31.50;75.40
9919;DHT22;4998;51.024;13.828;2023-08-20T11:30:09;31.60;75.30
9919;DHT22;4998;51.024;13.828;2023-08-20T11:32:38;31.60;75.40
9919;DHT22;4998;51.024;13.828;2023-08-20T11:35:05;31.60;75.50
9919;DHT22;4998;51.024;13.828;2023-08-20T11:37:33;31.60;74.70
9919;DHT22;4998;51.024;13.828;2023-08-20T11:40:00;31.70;74.40
9919;DHT22;4998;51.024;13.828;2023-08-20T11:42:29;31.70;74.30
9919;DHT22;4998;51.024;13.828;2023-08-20T11:44:56;31.70;73.70
9919;DHT22;4998;51.024;13.828;2023-08-20T11:47:23;31.80;73.80
9919;DHT22;4998;51.024;13.828;2023-08-20T11:50:02;31.80;74.00
9919;DHT22;4998;51.024;13.828;2023-08-20T11:52:31;31.80;73.80
9919;DHT22;4998;51.024;13.828;2023-08-20T11:54:59;31.90;73.50
9919;DHT22;4998;51.024;13.828;2023-08-20T11:57:26;31.90;73.20
9919;DHT22;4998;51.024;13.828;2023-08-20T11:59:54;32.00;73.20
9919;DHT22;4998;51.024;13.828;2023-08-20T12:02:25;32.10;72.80
9919;DHT22;4998;51.024;13.828;2023-08-20T12:04:52;32.10;72.40
9919;DHT22;4998;51.024;13.828;2023-08-20T12:07:19;32.20;72.60
9919;DHT22;4998;51.024;13.828;2023-08-20T12:09:45;32.20;72.40
9919;DHT22;4998;51.024;13.828;2023-08-20T12:12:13;32.30;72.20
9919;DHT22;4998;51.024;13.828;2023-08-20T12:14:41;32.40;71.90
9919;DHT22;4998;51.024;13.828;2023-08-20T12:17:10;32.40;71.60
9919;DHT22;4998;51.024;13.828;2023-08-20T12:19:37;32.50;71.40
9919;DHT22;4998;51.024;13.828;2023-08-20T12:22:04;32.50;71.30
9919;DHT22;4998;51.024;13.828;2023-08-20T12:24:31;32.60;71.00
9919;DHT22;4998;51.024;13.828;2023-08-20T12:26:58;32.70;70.80
9919;DHT22;4998;51.024;13.828;2023-08-20T12:29:25;32.70;70.20
9919;DHT22;4998;51.024;13.828;2023-08-20T12:31:52;32.80;69.80
9919;DHT22;4998;51.024;13.828;2023-08-20T12:34:21;32.80;69.30
9919;DHT22;4998;51.024;13.828;2023-08-20T12:36:49;32.90;68.60
9919;DHT22;4998;51.024;13.828;2023-08-20T12:39:16;33.00;67.90
9919;DHT22;4998;51.024;13.828;2023-08-20T12:41:44;33.00;67.70
9919;DHT22;4998;51.024;13.828;2023-08-20T12:44:11;33.00;68.10
9919;DHT22;4998;51.024;13.828;2023-08-20T12:46:38;33.00;67.10
9919;DHT22;4998;51.024;13.828;2023-08-20T12:49:05;33.00;66.90
9919;DHT22;4998;51.024;13.828;2023-08-20T12:51:33;33.00;66.80
9919;DHT22;4998;51.024;13.828;2023-08-20T12:54:00;33.00;67.20
9919;DHT22;4998;51.024;13.828;2023-08-20T12:56:27;33.00;66.40
9919;DHT22;4998;51.024;13.828;2023-08-20T12:58:54;33.10;66.30
9919;DHT22;4998;51.024;13.828;2023-08-20T13:01:20;33.10;65.90
9919;DHT22;4998;51.024;13.828;2023-08-20T13:03:48;33.10;65.00
9919;DHT22;4998;51.024;13.828;2023-08-20T13:06:15;33.20;64.60
9919;DHT22;4998;51.024;13.828;2023-08-20T13:08:44;33.20;64.30
9919;DHT22;4998;51.024;13.828;2023-08-20T13:11:15;33.20;63.90
9919;DHT22;4998;51.024;13.828;2023-08-20T13:13:43;33.20;63.70
9919;DHT22;4998;51.024;13.828;2023-08-20T13:16:11;33.20;64.00
9919;DHT22;4998;51.024;13.828;2023-08-20T13:18:38;33.20;64.10
9919;DHT22;4998;51.024;13.828;2023-08-20T13:21:05;33.30;63.90
9919;DHT22;4998;51.024;13.828;2023-08-20T13:23:32;33.30;63.70
9919;DHT22;4998;51.024;13.828;2023-08-20T13:26:00;33.30;63.60
9919;DHT22;4998;51.024;13.828;2023-08-20T13:28:28;33.40;64.00
9919;DHT22;4998;51.024;13.828;2023-08-20T13:30:55;33.40;63.10
9919;DHT22;4998;51.024;13.828;2023-08-20T13:33:22;33.50;62.70
9919;DHT22;4998;51.024;13.828;2023-08-20T13:35:49;33.50;62.80
9919;DHT22;4998;51.024;13.828;2023-08-20T13:38:17;33.50;62.60
9919;DHT22;4998;51.024;13.828;2023-08-20T13:40:46;33.60;62.40
9919;DHT22;4998;51.024;13.828;2023-08-20T13:43:14;33.60;62.10
9919;DHT22;4998;51.024;13.828;2023-08-20T13:45:41;33.70;62.20
9919;DHT22;4998;51.024;13.828;2023-08-20T13:48:08;33.70;62.00
9919;DHT22;4998;51.024;13.828;2023-08-20T13:50:35;33.70;62.60
9919;DHT22;4998;51.024;13.828;2023-08-20T13:53:02;33.80;61.50
9919;DHT22;4998;51.024;13.828;2023-08-20T13:55:29;33.90;61.00
9919;DHT22;4998;51.024;13.828;2023-08-20T13:57:56;33.90;60.20
9919;DHT22;4998;51.024;13.828;2023-08-20T14:00:25;33.90;59.90
9919;DHT22;4998;51.024;13.828;2023-08-20T14:02:52;34.00;60.60
9919;DHT22;4998;51.024;13.828;2023-08-20T14:05:19;34.10;59.90
9919;DHT22;4998;51.024;13.828;2023-08-20T14:07:46;34.10;59.60
9919;DHT22;4998;51.024;13.828;2023-08-20T14:10:13;34.10;59.80
9919;DHT22;4998;51.024;13.828;2023-08-20T14:12:39;34.20;59.60
9919;DHT22;4998;51.024;13.828;2023-08-20T14:15:08;34.20;59.40
9919;DHT22;4998;51.024;13.828;2023-08-20T14:17:36;34.30;59.30
9919;DHT22;4998;51.024;13.828;2023-08-20T14:20:04;34.40;59.00
9919;DHT22;4998;51.024;13.828;2023-08-20T14:22:32;34.40;58.70
9919;DHT22;4998;51.024;13.828;2023-08-20T14:24:59;34.50;58.60
9919;DHT22;4998;51.024;13.828;2023-08-20T14:27:26;34.30;58.40
9919;DHT22;4998;51.024;13.828;2023-08-20T14:29:53;34.50;58.40
9919;DHT22;4998;51.024;13.828;2023-08-20T14:32:20;34.50;58.30
9919;DHT22;4998;51.024;13.828;2023-08-20T14:34:48;34.60;58.00
9919;DHT22;4998;51.024;13.828;2023-08-20T14:37:15;34.60;57.60
9919;DHT22;4998;51.024;13.828;2023-08-20T14:39:42;34.60;57.60
9919;DHT22;4998;51.024;13.828;2023-08-20T14:42:09;34.60;57.50
9919;DHT22;4998;51.024;13.828;2023-08-20T14:44:36;34.60;57.40
9919;DHT22;4998;51.024;13.828;2023-08-20T14:47:03;34.60;57.40
9919;DHT22;4998;51.024;13.828;2023-08-20T14:49:30;34.70;57.40
9919;DHT22;4998;51.024;13.828;2023-08-20T14:51:58;34.70;57.30
9919;DHT22;4998;51.024;13.828;2023-08-20T14:54:26;34.70;57.10
9919;DHT22;4998;51.024;13.828;2023-08-20T14:56:53;34.70;56.80
9919;DHT22;4998;51.024;13.828;2023-08-20T14:59:20;34.70;56.60
9919;DHT22;4998;51.024;13.828;2023-08-20T15:01:47;34.70;56.60
9919;DHT22;4998;51.024;13.828;2023-08-20T15:04:14;34.70;56.80
9919;DHT22;4998;51.024;13.828;2023-08-20T15:06:41;34.70;56.80
9919;DHT22;4998;51.024;13.828;2023-08-20T15:09:09;34.80;56.90
9919;DHT22;4998;51.024;13.828;2023-08-20T15:11:40;34.80;56.60
9919;DHT22;4998;51.024;13.828;2023-08-20T15:14:07;34.80;56.60
9919;DHT22;4998;51.024;13.828;2023-08-20T15:16:34;34.90;56.30
9919;DHT22;4998;51.024;13.828;2023-08-20T15:19:01;34.80;56.30
9919;DHT22;4998;51.024;13.828;2023-08-20T15:21:29;34.90;56.50
9919;DHT22;4998;51.024;13.828;2023-08-20T15:23:55;34.90;56.20
9919;DHT22;4998;51.024;13.828;2023-08-20T15:26:24;34.90;55.90
9919;DHT22;4998;51.024;13.828;2023-08-20T15:28:51;34.90;55.50
9919;DHT22;4998;51.024;13.828;2023-08-20T15:31:18;35.00;55.50
9919;DHT22;4998;51.024;13.828;2023-08-20T15:33:45;35.00;55.70
9919;DHT22;4998;51.024;13.828;2023-08-20T15:36:12;35.00;55.60
9919;DHT22;4998;51.024;13.828;2023-08-20T15:38:38;35.00;55.50
9919;DHT22;4998;51.024;13.828;2023-08-20T15:41:05;35.00;55.00
9919;DHT22;4998;51.024;13.828;2023-08-20T15:43:34;35.00;54.90
9919;DHT22;4998;51.024;13.828;2023-08-20T15:46:01;35.00;54.80
9919;DHT22;4998;51.024;13.828;2023-08-20T15:48:28;34.90;54.70
9919;DHT22;4998;51.024;13.828;2023-08-20T15:50:55;34.90;54.90
9919;DHT22;4998;51.024;13.828;2023-08-20T15:53:22;34.90;54.90
9919;DHT22;4998;51.024;13.828;2023-08-20T15:55:48;34.80;54.60
9919;DHT22;4998;51.024;13.828;2023-08-20T15:58:15;34.90;55.00